This is the latest recevied weather packets stored in our database for station/object Oberstadn. If no packets are shown the sender has not sent any weather packets the latest 10 day(s).
| Time | Temp. | Humidity | Pressure | Rain* | Wind** | Luminosity | Snow |
|---|---|---|---|---|---|---|---|
| 1777869131 | 7.22° C | 83% | 1014.7 hPa | 0 mm | - | - | - |
| 1777867331 | 7.78° C | 80% | 1014.7 hPa | 0 mm | - | - | - |
| 1777865531 | 8.33° C | 80% | 1014.8 hPa | 0 mm | - | - | - |
| 1777863732 | 8.89° C | 80% | 1014.8 hPa | 0 mm | - | - | - |
| 1777861931 | 8.89° C | 80% | 1014.9 hPa | 0 mm | - | - | - |
| 1777860132 | 9.44° C | 78% | 1014.9 hPa | 0 mm | - | - | - |
| 1777858331 | 9.44° C | 76% | 1014.8 hPa | 0 mm | - | - | - |
| 1777856531 | 10° C | 74% | 1015 hPa | 0 mm | - | - | - |
| 1777854730 | 10° C | 73% | 1015.3 hPa | 0 mm | - | - | - |
| 1777852928 | 10.56° C | 72% | 1015.2 hPa | 0 mm | - | - | - |
| 1777851129 | 11.11° C | 71% | 1015.4 hPa | 0 mm | - | - | - |
| 1777849329 | 11.11° C | 69% | 1015.5 hPa | 0 mm | - | - | - |
| 1777847530 | 11.67° C | 69% | 1015.6 hPa | 0 mm | - | - | - |
| 1777843930 | 13.89° C | 57% | 1015.3 hPa | 0 mm | - | - | - |
| 1777842131 | 15° C | 51% | 1014.9 hPa | 0 mm | - | - | - |
| 1777840329 | 16.11° C | 49% | 1014.6 hPa | 0 mm | - | - | - |
| 1777838531 | 17.22° C | 45% | 1014.4 hPa | 0 mm | - | - | - |
| 1777836730 | 17.78° C | 43% | 1014.1 hPa | 0 mm | - | - | - |
| 1777834930 | 18.33° C | 43% | 1013.4 hPa | 0 mm | - | - | - |
| 1777833130 | 18.33° C | 54% | 1012.7 hPa | 0 mm | - | - | - |
| 1777831330 | 19.44° C | 52% | 1012.7 hPa | 0 mm | - | - | - |
| 1777829530 | 20.56° C | 53% | 1012.5 hPa | 0 mm | - | - | - |
| 1777827731 | 23.33° C | 41% | 1012.5 hPa | 0 mm | - | - | - |
| 1777825930 | 24.44° C | 30% | 1012.3 hPa | 0 mm | - | - | - |
| 1777824131 | 26.11° C | 25% | 1012.1 hPa | 0 mm | - | - | - |
* Rain since midnight (hover to see other rain measurements)
** Current wind speed in m/s (hover to see current wind gust speed)